Time;durP1;ratioP1;P1;durP2;ratioP2;P2;SDS_P1;SDS_P2;PMS_P1;PMS_P2;Temp;Humidity;BMP_temperature;BMP_pressure;BME280_temperature;BME280_humidity;BME280_pressure;Samples;Min_cycle;Max_cycle;Signal;HPM_P1;HPM_P2
2021/11/05 00:01:35;;;;;;;3.53;2.00;;;4.60;76.10;;;;;;5071417;28;20231;-67
2021/11/05 00:04:05;;;;;;;2.85;2.15;;;4.50;76.30;;;;;;5068087;28;20529;-67
2021/11/05 00:06:48;;;;;;;2.38;1.52;;;4.50;76.80;;;;;;5071385;28;20557;-67
2021/11/05 00:09:24;;;;;;;3.38;1.77;;;4.50;76.90;;;;;;5071431;28;20603;-68
2021/11/05 00:11:51;;;;;;;2.60;1.63;;;4.50;76.50;;;;;;5070895;28;20243;-67
2021/11/05 00:14:29;;;;;;;2.78;1.58;;;4.50;76.90;;;;;;5071121;28;20243;-67
2021/11/05 00:17:01;;;;;;;2.63;1.70;;;4.40;76.80;;;;;;5070835;28;20190;-66
2021/11/05 00:19:35;;;;;;;2.58;1.70;;;4.50;76.50;;;;;;5071001;28;20190;-66
2021/11/05 00:22:08;;;;;;;2.92;1.60;;;4.50;76.40;;;;;;5070815;28;20197;-66
2021/11/05 00:24:41;;;;;;;3.30;1.50;;;4.40;76.50;;;;;;5071285;28;20217;-66
2021/11/05 00:27:14;;;;;;;3.00;1.80;;;4.50;76.30;;;;;;5072263;28;20301;-66
2021/11/05 00:29:58;;;;;;;2.55;1.70;;;4.40;76.50;;;;;;5072859;28;20204;-67
2021/11/05 00:32:26;;;;;;;2.55;1.73;;;4.40;76.40;;;;;;5072509;28;20652;-67
2021/11/05 00:34:56;;;;;;;4.20;1.90;;;4.30;76.70;;;;;;5072440;28;20255;-66
2021/11/05 00:37:28;;;;;;;3.30;2.20;;;4.20;76.00;;;;;;5072766;28;20675;-67
2021/11/05 00:40:02;;;;;;;3.25;1.88;;;4.10;77.50;;;;;;5072301;28;20526;-66
2021/11/05 00:42:38;;;;;;;2.85;2.00;;;4.10;76.80;;;;;;5072657;28;20194;-67
2021/11/05 00:45:20;;;;;;;2.83;2.00;;;4.10;76.60;;;;;;5071930;28;20205;-66
2021/11/05 00:48:02;;;;;;;4.20;2.80;;;4.10;76.20;;;;;;5072064;28;20325;-66
2021/11/05 00:50:32;;;;;;;6.55;3.65;;;4.10;76.40;;;;;;5072038;28;20243;-66
2021/11/05 00:53:11;;;;;;;6.40;3.88;;;4.10;75.80;;;;;;5072807;28;20588;-66
2021/11/05 00:55:41;;;;;;;7.45;3.53;;;4.00;75.90;;;;;;5072356;28;20190;-66
2021/11/05 00:58:17;;;;;;;5.00;2.95;;;4.00;75.80;;;;;;5072432;28;20628;-67
2021/11/05 01:00:57;;;;;;;6.15;2.42;;;4.00;75.40;;;;;;5072417;28;20186;-66
2021/11/05 01:03:25;;;;;;;4.25;2.55;;;4.00;74.70;;;;;;5072347;28;20198;-66
2021/11/05 01:05:54;;;;;;;3.70;2.90;;;3.90;74.50;;;;;;5072132;28;20218;-66
2021/11/05 01:08:35;;;;;;;2.88;1.70;;;3.90;75.00;;;;;;5072223;28;20197;-67
2021/11/05 01:11:05;;;;;;;3.30;1.85;;;3.90;75.00;;;;;;5071724;28;20640;-66
2021/11/05 01:13:47;;;;;;;2.88;2.00;;;4.00;75.80;;;;;;5072113;28;20556;-67
2021/11/05 01:19:12;;;;;;;5.05;2.95;;;3.80;77.50;;;;;;5071949;28;20190;-66
2021/11/05 01:21:56;;;;;;;5.57;2.80;;;3.70;78.40;;;;;;5071798;28;20186;-66
2021/11/05 01:24:32;;;;;;;3.30;2.00;;;3.60;79.40;;;;;;5072399;28;20609;-67
2021/11/05 01:27:08;;;;;;;2.72;1.83;;;3.50;80.10;;;;;;5071788;28;20181;-66
2021/11/05 01:29:50;;;;;;;3.03;1.42;;;3.60;80.40;;;;;;5071935;28;20186;-66
2021/11/05 01:32:28;;;;;;;3.35;1.85;;;3.60;79.70;;;;;;5052193;28;20202;-67
2021/11/05 01:34:58;;;;;;;4.60;2.15;;;3.60;79.50;;;;;;5056700;28;20178;-67
2021/11/05 01:37:30;;;;;;;4.32;2.60;;;3.70;79.30;;;;;;5071895;28;20190;-66
2021/11/05 01:40:08;;;;;;;3.67;2.30;;;3.60;79.50;;;;;;5071850;28;20220;-66
2021/11/05 01:42:36;;;;;;;4.47;2.10;;;3.60;80.10;;;;;;5071907;28;20194;-66
2021/11/05 01:45:06;;;;;;;3.58;2.08;;;3.60;80.10;;;;;;5070860;28;20680;-66
2021/11/05 01:47:41;;;;;;;3.30;2.13;;;3.60;80.30;;;;;;5071414;28;20302;-66
2021/11/05 01:50:10;;;;;;;2.40;1.73;;;3.60;80.10;;;;;;5071637;28;20236;-66
2021/11/05 01:52:43;;;;;;;2.20;1.30;;;3.60;80.30;;;;;;5071511;28;20193;-67
2021/11/05 01:55:13;;;;;;;3.00;1.80;;;3.60;80.50;;;;;;5072226;28;20220;-66
2021/11/05 01:57:44;;;;;;;3.10;2.15;;;3.60;80.70;;;;;;5075440;28;20256;-66
2021/11/05 02:00:14;;;;;;;3.42;1.70;;;3.60;80.80;;;;;;5075603;28;20201;-66
2021/11/05 02:02:42;;;;;;;4.45;1.60;;;3.60;80.60;;;;;;5075401;28;20197;-66
2021/11/05 02:05:21;;;;;;;3.17;1.95;;;3.70;80.40;;;;;;5075554;28;20236;-66
2021/11/05 02:07:57;;;;;;;2.95;1.83;;;3.70;80.00;;;;;;5075177;28;20186;-66
2021/11/05 02:10:29;;;;;;;3.30;2.05;;;3.70;79.40;;;;;;5075573;28;20202;-66
2021/11/05 02:13:01;;;;;;;4.07;2.10;;;3.70;78.40;;;;;;5074867;28;20195;-66
2021/11/05 02:15:33;;;;;;;4.55;2.42;;;3.70;78.20;;;;;;5075571;28;20225;-66
2021/11/05 02:18:09;;;;;;;3.22;2.25;;;3.70;77.90;;;;;;5075050;28;20190;-67
2021/11/05 02:20:48;;;;;;;3.40;2.15;;;3.70;77.90;;;;;;5075475;28;20239;-66
2021/11/05 02:23:21;;;;;;;5.43;1.73;;;3.70;78.20;;;;;;5074761;28;20182;-67
2021/11/05 02:25:54;;;;;;;2.92;1.77;;;3.70;78.50;;;;;;5074929;28;20680;-68
2021/11/05 02:28:35;;;;;;;7.47;1.80;;;3.70;78.90;;;;;;5072288;28;20657;-66
2021/11/05 02:31:07;;;;;;;3.03;1.73;;;3.70;78.20;;;;;;5074290;28;20190;-66
2021/11/05 02:33:38;;;;;;;3.08;1.92;;;3.70;78.10;;;;;;5074965;28;20204;-66
2021/11/05 02:36:13;;;;;;;3.67;2.13;;;3.70;78.30;;;;;;5074850;28;20194;-66
2021/11/05 02:38:44;;;;;;;3.17;1.55;;;3.70;78.00;;;;;;5075029;28;20194;-67
2021/11/05 02:41:19;;;;;;;3.40;1.65;;;3.70;79.00;;;;;;5074581;28;20591;-67
2021/11/05 02:43:52;;;;;;;2.65;1.50;;;3.70;78.20;;;;;;5075017;28;20229;-67
2021/11/05 02:46:27;;;;;;;2.88;1.70;;;3.70;79.00;;;;;;5074255;28;20225;-67
2021/11/05 02:48:59;;;;;;;2.30;1.35;;;3.80;79.00;;;;;;5074420;28;20186;-66
2021/11/05 02:51:30;;;;;;;2.50;1.50;;;3.80;79.30;;;;;;5074160;28;20190;-66
2021/11/05 02:54:02;;;;;;;6.53;1.85;;;3.80;79.20;;;;;;5074660;28;20195;-67
2021/11/05 02:56:33;;;;;;;2.88;1.40;;;3.90;79.20;;;;;;5074334;28;20197;-67
2021/11/05 02:59:07;;;;;;;5.97;2.33;;;3.90;78.70;;;;;;5074652;28;20260;-67
2021/11/05 03:01:38;;;;;;;2.63;1.50;;;4.00;78.40;;;;;;5074095;28;20193;-66
2021/11/05 03:04:09;;;;;;;2.30;1.67;;;3.90;78.80;;;;;;5074558;28;20243;-66
2021/11/05 03:06:43;;;;;;;4.55;2.20;;;3.90;78.70;;;;;;5073443;28;20221;-66
2021/11/05 03:09:19;;;;;;;2.55;1.42;;;3.90;79.20;;;;;;5074218;28;20190;-66
2021/11/05 03:11:52;;;;;;;2.53;1.50;;;3.90;79.50;;;;;;5073954;28;20303;-66
2021/11/05 03:14:22;;;;;;;2.08;1.15;;;3.90;79.50;;;;;;5074382;28;20277;-67
2021/11/05 03:16:54;;;;;;;2.88;1.40;;;4.00;79.00;;;;;;5073588;28;20269;-67
2021/11/05 03:19:29;;;;;;;3.33;1.70;;;4.00;79.40;;;;;;5074434;28;20189;-66
2021/11/05 03:22:02;;;;;;;2.60;1.52;;;4.00;79.20;;;;;;5073610;28;20186;-67
2021/11/05 03:24:37;;;;;;;2.97;1.52;;;4.00;79.60;;;;;;5074058;28;20190;-67
2021/11/05 03:27:14;;;;;;;2.88;1.67;;;4.10;79.50;;;;;;5073583;28;20221;-66
2021/11/05 03:29:46;;;;;;;1.83;1.10;;;4.10;78.90;;;;;;5073662;28;20194;-66
2021/11/05 03:32:19;;;;;;;2.60;1.25;;;4.10;79.20;;;;;;5073631;28;20269;-66
2021/11/05 03:34:52;;;;;;;2.05;1.33;;;4.10;79.50;;;;;;5073982;28;20194;-67
2021/11/05 03:37:24;;;;;;;2.80;1.27;;;4.10;79.30;;;;;;5073852;28;20602;-67
2021/11/05 03:39:56;;;;;;;2.72;1.30;;;4.10;79.30;;;;;;5074042;28;20194;-67
2021/11/05 03:42:37;;;;;;;5.32;1.67;;;4.10;79.40;;;;;;5073258;28;20236;-66
2021/11/05 03:45:10;;;;;;;2.63;1.30;;;4.10;79.80;;;;;;5073577;28;20314;-66
2021/11/05 03:47:42;;;;;;;1.90;1.10;;;4.10;80.10;;;;;;5072989;28;20301;-66
2021/11/05 03:50:10;;;;;;;2.47;1.40;;;4.10;79.70;;;;;;5073600;28;20611;-67
2021/11/05 03:52:41;;;;;;;2.10;1.50;;;4.10;79.90;;;;;;5072631;28;20532;-67
2021/11/05 03:55:13;;;;;;;1.90;0.98;;;4.10;80.20;;;;;;5073077;28;20277;-67
2021/11/05 03:57:51;;;;;;;2.50;1.38;;;4.20;80.00;;;;;;5073168;28;20186;-66
2021/11/05 04:00:23;;;;;;;2.45;1.30;;;4.10;79.70;;;;;;5073046;28;20201;-67
2021/11/05 04:03:05;;;;;;;2.70;1.55;;;4.10;80.00;;;;;;5072709;28;20236;-67
2021/11/05 04:05:35;;;;;;;2.22;1.13;;;4.10;80.50;;;;;;5071723;28;20684;-66
2021/11/05 04:08:04;;;;;;;2.55;1.30;;;4.10;80.10;;;;;;5072390;28;20194;-68
2021/11/05 04:10:36;;;;;;;2.40;1.70;;;4.20;79.60;;;;;;5073287;28;20644;-67
2021/11/05 04:13:17;;;;;;;3.13;1.95;;;4.20;79.80;;;;;;5072783;28;20711;-66
2021/11/05 04:15:50;;;;;;;2.70;1.58;;;4.20;80.00;;;;;;5072771;28;20280;-66
2021/11/05 04:18:23;;;;;;;4.18;1.55;;;4.20;80.10;;;;;;5072490;28;20190;-66
2021/11/05 04:20:51;;;;;;;1.85;1.17;;;4.30;79.90;;;;;;5073308;28;20190;-67
2021/11/05 04:23:34;;;;;;;2.95;1.42;;;4.30;79.40;;;;;;5072639;28;20186;-66
2021/11/05 04:26:08;;;;;;;2.70;1.30;;;4.30;79.60;;;;;;5073075;28;20224;-66
2021/11/05 04:28:40;;;;;;;2.28;1.20;;;4.40;78.70;;;;;;5072519;28;20194;-66
2021/11/05 04:31:17;;;;;;;2.40;1.50;;;4.30;79.10;;;;;;5072966;28;20191;-66
2021/11/05 04:33:53;;;;;;;2.13;1.13;;;4.30;79.70;;;;;;5072441;28;20222;-67
2021/11/05 04:36:26;;;;;;;2.40;1.48;;;4.30;79.80;;;;;;5073123;28;20293;-67
2021/11/05 04:38:53;;;;;;;4.45;2.35;;;4.30;79.00;;;;;;5072369;28;20240;-67
2021/11/05 04:41:23;;;;;;;3.47;2.22;;;4.30;78.90;;;;;;5072951;28;20188;-66
2021/11/05 04:44:00;;;;;;;3.30;2.75;;;4.30;79.00;;;;;;5072648;28;20266;-67
2021/11/05 04:46:33;;;;;;;4.30;2.80;;;4.30;79.20;;;;;;5072471;28;20582;-67
2021/11/05 04:49:04;;;;;;;2.75;2.10;;;4.20;78.90;;;;;;5071835;28;20186;-66
2021/11/05 04:51:46;;;;;;;3.10;2.10;;;4.20;79.20;;;;;;5072597;28;20702;-67
2021/11/05 04:54:19;;;;;;;2.60;1.95;;;4.10;79.30;;;;;;5072548;28;20193;-66
2021/11/05 04:56:54;;;;;;;3.30;1.80;;;4.10;78.90;;;;;;5071827;28;20194;-67
2021/11/05 04:59:23;;;;;;;2.55;2.00;;;4.10;79.00;;;;;;5072274;28;20587;-67
2021/11/05 05:01:56;;;;;;;2.58;1.80;;;4.10;78.80;;;;;;5071846;28;21018;-67
2021/11/05 05:04:29;;;;;;;2.63;2.20;;;4.10;78.70;;;;;;5072195;28;20198;-66
2021/11/05 05:07:01;;;;;;;4.05;2.65;;;4.00;78.80;;;;;;5071880;28;20217;-66
2021/11/05 05:09:45;;;;;;;6.47;2.80;;;4.00;78.80;;;;;;5072083;28;20240;-67
2021/11/05 05:12:16;;;;;;;3.35;2.35;;;4.00;78.80;;;;;;5072160;28;20197;-67
2021/11/05 05:14:47;;;;;;;3.80;2.05;;;4.00;78.40;;;;;;5071903;28;20591;-67
2021/11/05 05:17:17;;;;;;;2.40;1.40;;;4.00;78.30;;;;;;5072165;28;20282;-66
2021/11/05 05:19:48;;;;;;;3.05;1.85;;;3.90;78.20;;;;;;5071781;28;20186;-67
2021/11/05 05:22:16;;;;;;;3.10;1.95;;;3.90;78.70;;;;;;5072138;28;20233;-66
2021/11/05 05:24:51;;;;;;;4.65;1.63;;;3.90;78.80;;;;;;5071856;28;20694;-66
2021/11/05 05:27:20;;;;;;;2.60;1.83;;;3.80;79.10;;;;;;5071565;28;20270;-67
2021/11/05 05:29:56;;;;;;;3.60;1.73;;;3.80;78.70;;;;;;5072613;28;20190;-67
2021/11/05 05:32:35;;;;;;;2.90;2.15;;;3.80;78.90;;;;;;5076080;28;20201;-66
2021/11/05 05:35:07;;;;;;;3.60;2.38;;;3.80;79.00;;;;;;5075996;28;20197;-66
2021/11/05 05:37:36;;;;;;;8.13;4.85;;;3.80;79.00;;;;;;5075654;28;20190;-66
2021/11/05 05:40:22;;;;;;;8.68;6.07;;;3.80;79.20;;;;;;5075965;28;20190;-66
2021/11/05 05:42:58;;;;;;;7.22;3.88;;;3.80;79.10;;;;;;5075595;28;20189;-67
2021/11/05 05:45:28;;;;;;;7.38;4.97;;;3.80;79.10;;;;;;5075502;28;20650;-67
2021/11/05 05:48:06;;;;;;;7.28;4.70;;;3.80;79.10;;;;;;5074957;28;20241;-66
2021/11/05 05:50:41;;;;;;;6.20;3.92;;;3.70;78.60;;;;;;5075357;28;20186;-67
2021/11/05 05:53:10;;;;;;;8.05;5.20;;;3.80;78.60;;;;;;5075544;28;20204;-66
2021/11/05 05:55:47;;;;;;;9.10;5.22;;;3.80;77.80;;;;;;5075387;28;20229;-67
2021/11/05 05:58:21;;;;;;;4.30;2.88;;;3.70;77.30;;;;;;5075149;28;20179;-66
2021/11/05 06:00:54;;;;;;;5.47;3.53;;;3.70;77.40;;;;;;5075739;28;20273;-66
2021/11/05 06:03:35;;;;;;;5.60;2.63;;;3.60;77.00;;;;;;5075026;28;20707;-67
2021/11/05 06:06:11;;;;;;;4.75;2.40;;;3.60;77.00;;;;;;5074716;28;20300;-66
2021/11/05 06:08:44;;;;;;;3.40;2.22;;;3.60;77.70;;;;;;5075223;28;20294;-66
2021/11/05 06:11:19;;;;;;;4.72;2.55;;;3.50;78.60;;;;;;5070999;28;20691;-66
2021/11/05 06:13:48;;;;;;;4.57;2.80;;;3.60;78.80;;;;;;5073618;28;20643;-67
2021/11/05 06:16:16;;;;;;;4.72;3.10;;;3.60;78.20;;;;;;5073345;28;20193;-66
2021/11/05 06:18:52;;;;;;;5.63;4.18;;;3.60;77.80;;;;;;5073725;28;20193;-66
2021/11/05 06:21:23;;;;;;;7.25;3.75;;;3.70;77.90;;;;;;5068683;28;20190;-66
2021/11/05 06:23:52;;;;;;;3.90;2.85;;;3.70;77.70;;;;;;5072223;28;20260;-67
2021/11/05 06:26:22;;;;;;;4.38;3.03;;;3.70;77.00;;;;;;5072650;28;20263;-67
2021/11/05 06:28:51;;;;;;;13.45;7.60;;;3.70;76.90;;;;;;5073146;28;20198;-66
2021/11/05 06:31:23;;;;;;;14.45;7.70;;;3.80;77.60;;;;;;5073180;28;20621;-67
2021/11/05 06:33:51;;;;;;;16.40;9.10;;;3.90;77.70;;;;;;5073458;28;20659;-67
2021/11/05 06:36:23;;;;;;;8.70;4.95;;;4.10;77.00;;;;;;5068500;28;20229;-67
2021/11/05 06:39:04;;;;;;;8.00;4.95;;;4.20;76.60;;;;;;5073482;28;20272;-66
2021/11/05 06:41:32;;;;;;;9.18;5.00;;;4.20;76.20;;;;;;5072191;28;20222;-67
2021/11/05 06:44:03;;;;;;;8.55;5.32;;;4.40;75.20;;;;;;5072732;28;21072;-66
2021/11/05 06:46:41;;;;;;;9.18;4.78;;;4.30;76.10;;;;;;5072391;28;20233;-68
2021/11/05 06:49:12;;;;;;;5.50;3.50;;;4.30;76.60;;;;;;5073038;28;20201;-67
2021/11/05 06:51:45;;;;;;;9.73;3.08;;;4.30;76.90;;;;;;5072690;28;20194;-67
2021/11/05 06:54:12;;;;;;;9.30;5.10;;;4.40;76.00;;;;;;5068934;28;20182;-69
2021/11/05 06:56:43;;;;;;;5.55;2.97;;;4.30;76.30;;;;;;5072907;28;20206;-67
2021/11/05 06:59:12;;;;;;;8.02;3.33;;;4.30;76.40;;;;;;5072445;28;20232;-67
2021/11/05 07:01:47;;;;;;;6.10;3.40;;;4.30;76.40;;;;;;5069113;28;20247;-66
2021/11/05 07:04:14;;;;;;;4.88;3.33;;;4.40;77.30;;;;;;5073031;28;20544;-67
2021/11/05 07:06:47;;;;;;;3.75;2.90;;;4.50;77.80;;;;;;5072734;28;20217;-67
2021/11/05 07:09:18;;;;;;;5.43;3.25;;;4.70;77.60;;;;;;5068887;28;20225;-67
2021/11/05 07:11:46;;;;;;;7.22;3.03;;;5.00;77.50;;;;;;5072247;28;20189;-67
2021/11/05 07:14:17;;;;;;;2.88;2.47;;;5.50;76.40;;;;;;5071781;28;20182;-67
2021/11/05 07:16:46;;;;;;;4.85;2.70;;;5.90;74.00;;;;;;5072606;28;20199;-69
2021/11/05 07:19:29;;;;;;;8.80;2.85;;;6.30;72.20;;;;;;5072800;28;20285;-67
2021/11/05 07:24:49;;;;;;;5.53;3.08;;;7.10;70.80;;;;;;5069740;28;20247;-67
2021/11/05 07:27:23;;;;;;;6.43;3.72;;;7.50;68.70;;;;;;5072289;28;20680;-68
2021/11/05 07:29:53;;;;;;;6.72;4.32;;;7.90;67.50;;;;;;5071407;28;20301;-68
2021/11/05 07:32:26;;;;;;;5.45;3.20;;;8.30;64.10;;;;;;5072201;28;20238;-68
2021/11/05 07:35:01;;;;;;;3.15;2.20;;;8.60;63.90;;;;;;5071634;28;20640;-68
2021/11/05 07:37:29;;;;;;;3.42;2.60;;;9.20;62.60;;;;;;5072542;28;20624;-68
2021/11/05 07:40:02;;;;;;;4.43;2.45;;;9.60;62.20;;;;;;5072224;28;20188;-67
2021/11/05 07:42:44;;;;;;;2.80;1.77;;;10.10;60.40;;;;;;5071796;28;20186;-68
2021/11/05 07:45:16;;;;;;;2.40;1.50;;;10.60;57.80;;;;;;5071775;28;20186;-67
2021/11/05 07:47:44;;;;;;;3.80;2.10;;;11.10;57.30;;;;;;5067226;28;20237;-69
2021/11/05 07:50:14;;;;;;;5.30;2.38;;;11.60;55.10;;;;;;5072155;28;20281;-68
2021/11/05 07:52:51;;;;;;;3.28;1.83;;;11.90;54.70;;;;;;5071663;28;20229;-67
2021/11/05 07:55:22;;;;;;;6.80;4.70;;;12.40;53.40;;;;;;5069191;28;20696;-68
2021/11/05 07:57:49;;;;;;;6.10;5.13;;;12.70;50.80;;;;;;5053888;28;20556;-68
2021/11/05 08:00:23;;;;;;;5.55;3.50;;;13.10;49.50;;;;;;5068871;28;20201;-68
2021/11/05 08:02:51;;;;;;;3.70;2.10;;;13.70;49.80;;;;;;5073789;28;20287;-68
2021/11/05 08:05:18;;;;;;;4.43;1.90;;;14.40;48.80;;;;;;5073321;28;20709;-68
2021/11/05 08:08:00;;;;;;;2.55;1.80;;;14.70;44.90;;;;;;5073328;28;20723;-68
2021/11/05 08:10:38;;;;;;;5.63;2.80;;;15.10;43.60;;;;;;5073067;28;20281;-69
2021/11/05 08:13:11;;;;;;;3.60;2.37;;;15.70;42.90;;;;;;5073139;28;20482;-68
2021/11/05 08:15:44;;;;;;;3.17;2.00;;;16.20;43.30;;;;;;5072728;28;20889;-68
2021/11/05 08:18:12;;;;;;;2.00;0.93;;;16.90;41.90;;;;;;5072891;28;20468;-68
2021/11/05 08:20:44;;;;;;;3.90;1.97;;;17.30;38.50;;;;;;5072978;28;20448;-68
2021/11/05 08:23:11;;;;;;;3.80;1.93;;;17.80;38.70;;;;;;5073010;28;20915;-68
2021/11/05 08:25:50;;;;;;;5.07;2.90;;;18.00;35.60;;;;;;5072882;28;20510;-68
2021/11/05 08:28:27;;;;;;;3.40;2.00;;;17.80;35.40;;;;;;5072549;28;20525;-68
2021/11/05 08:31:02;;;;;;;3.10;1.80;;;17.30;35.10;;;;;;5072375;28;20513;-68
2021/11/05 08:33:37;;;;;;;5.37;2.00;;;16.30;35.20;;;;;;5072371;28;20523;-68
2021/11/05 08:36:14;;;;;;;3.80;2.23;;;15.40;36.90;;;;;;5072352;28;20489;-68
2021/11/05 08:38:45;;;;;;;3.40;1.50;;;14.50;38.80;;;;;;5072672;28;20483;-67
2021/11/05 08:41:16;;;;;;;3.50;2.33;;;13.80;39.30;;;;;;5072580;28;20432;-68
2021/11/05 08:43:51;;;;;;;2.80;1.90;;;13.30;41.00;;;;;;5072720;28;20440;-70
2021/11/05 08:46:25;;;;;;;5.90;1.80;;;12.90;41.70;;;;;;5072311;28;20440;-67
2021/11/05 08:49:02;;;;;;;3.00;2.10;;;12.50;43.50;;;;;;5072319;28;20440;-67
2021/11/05 08:51:38;;;;;;;2.45;1.60;;;12.10;43.90;;;;;;5072386;28;20517;-67
2021/11/05 08:54:10;;;;;;;2.55;2.30;;;11.80;43.80;;;;;;5072497;28;20194;-67
2021/11/05 08:56:39;;;;;;;3.28;1.75;;;11.50;45.10;;;;;;5072370;28;20610;-67
2021/11/05 08:59:07;;;;;;;5.28;1.73;;;11.20;45.70;;;;;;5072171;28;20614;-67
2021/11/05 09:01:35;;;;;;;3.30;2.20;;;10.90;46.90;;;;;;5071991;28;20198;-66
2021/11/05 09:04:02;;;;;;;30.27;13.85;;;10.70;48.10;;;;;;5072368;28;20225;-67
2021/11/05 09:06:31;;;;;;;9.48;4.07;;;10.60;48.50;;;;;;5071759;28;20198;-67
2021/11/05 09:09:00;;;;;;;5.38;3.10;;;10.50;48.80;;;;;;5072094;28;20194;-70
2021/11/05 09:11:29;;;;;;;4.40;2.80;;;10.30;49.10;;;;;;5072306;28;20240;-67
2021/11/05 09:13:56;;;;;;;3.70;2.70;;;10.20;49.90;;;;;;5072180;28;20225;-69
2021/11/05 09:16:29;;;;;;;3.42;2.25;;;10.10;50.60;;;;;;5071831;28;20668;-67
2021/11/05 09:19:01;;;;;;;2.58;1.80;;;10.00;50.80;;;;;;5072168;28;20286;-67
2021/11/05 09:21:32;;;;;;;3.33;2.00;;;9.90;52.20;;;;;;5071950;28;20194;-67
2021/11/05 09:24:05;;;;;;;3.50;2.20;;;9.90;52.50;;;;;;5072256;28;20179;-66
2021/11/05 09:26:38;;;;;;;3.55;2.30;;;9.80;52.70;;;;;;5072304;28;20289;-66
2021/11/05 09:29:06;;;;;;;3.38;1.85;;;9.60;53.10;;;;;;5072545;28;20589;-66
2021/11/05 09:31:37;;;;;;;3.67;2.38;;;9.50;53.70;;;;;;5072153;28;20225;-67
2021/11/05 09:34:12;;;;;;;3.65;2.75;;;9.50;54.60;;;;;;5072403;28;20198;-66
2021/11/05 09:36:39;;;;;;;2.90;2.10;;;9.40;55.10;;;;;;5071991;28;20233;-66
2021/11/05 09:39:11;;;;;;;6.65;2.20;;;9.40;55.20;;;;;;5072480;28;20201;-66
2021/11/05 09:41:42;;;;;;;2.40;1.83;;;9.40;55.40;;;;;;5072339;28;20233;-66
2021/11/05 09:44:09;;;;;;;3.47;2.08;;;9.30;55.70;;;;;;5071921;28;20205;-67
2021/11/05 09:46:37;;;;;;;2.75;1.85;;;9.30;56.50;;;;;;5071490;28;20202;-66
2021/11/05 09:49:07;;;;;;;2.95;1.50;;;9.30;56.20;;;;;;5071703;28;20190;-66
2021/11/05 09:51:37;;;;;;;5.80;2.55;;;9.30;56.00;;;;;;5072117;28;20277;-66
2021/11/05 09:54:04;;;;;;;2.38;1.70;;;9.40;56.80;;;;;;5072109;28;20305;-67
2021/11/05 09:56:31;;;;;;;3.63;2.10;;;9.40;56.90;;;;;;5071765;28;20190;-66
2021/11/05 09:59:06;;;;;;;3.55;1.73;;;9.40;56.70;;;;;;5071926;28;20626;-66
2021/11/05 10:01:41;;;;;;;2.75;2.47;;;9.40;56.70;;;;;;5072038;28;20197;-66
2021/11/05 10:04:16;;;;;;;3.10;1.67;;;9.40;56.30;;;;;;5072028;28;20281;-66
2021/11/05 10:06:59;;;;;;;2.97;1.70;;;9.30;56.40;;;;;;5071653;28;20185;-66
2021/11/05 10:09:33;;;;;;;4.20;2.08;;;9.30;56.60;;;;;;5071507;28;20182;-66
2021/11/05 10:12:09;;;;;;;2.53;1.63;;;9.30;56.90;;;;;;5071416;28;20190;-66
2021/11/05 10:14:42;;;;;;;2.72;1.83;;;9.40;57.10;;;;;;5071530;28;20221;-66
2021/11/05 10:17:11;;;;;;;3.10;2.30;;;9.40;56.80;;;;;;5073712;28;20276;-66
2021/11/05 10:19:50;;;;;;;4.45;1.83;;;9.40;57.10;;;;;;5075385;28;20610;-66
2021/11/05 10:22:40;;;;;;;2.72;1.70;;;9.40;57.10;;;;;;5075287;28;20197;-67
2021/11/05 10:25:23;;;;;;;2.20;1.60;;;9.50;56.70;;;;;;5075193;28;20247;-66
2021/11/05 10:28:10;;;;;;;3.58;1.42;;;9.60;56.00;;;;;;5075246;28;20221;-67
2021/11/05 10:30:49;;;;;;;3.28;1.35;;;9.60;55.50;;;;;;5074969;28;20233;-66
2021/11/05 10:33:28;;;;;;;2.65;1.70;;;9.60;56.50;;;;;;5074981;28;20197;-67
2021/11/05 10:36:00;;;;;;;2.60;1.58;;;9.60;56.70;;;;;;5074760;28;20194;-66
2021/11/05 10:38:37;;;;;;;2.65;1.60;;;9.60;56.50;;;;;;5074794;28;20276;-67
2021/11/05 10:41:06;;;;;;;2.50;1.70;;;9.60;56.30;;;;;;5075240;28;20200;-66
2021/11/05 10:43:40;;;;;;;2.85;1.52;;;9.60;56.60;;;;;;5074779;28;20190;-66
2021/11/05 10:46:08;;;;;;;3.35;1.60;;;9.70;56.30;;;;;;5074705;28;20617;-66
2021/11/05 10:48:41;;;;;;;2.65;1.80;;;9.70;56.00;;;;;;5074608;28;20293;-69
2021/11/05 10:51:09;;;;;;;3.35;1.85;;;9.80;56.00;;;;;;5074661;28;20237;-66
2021/11/05 10:53:39;;;;;;;2.38;1.60;;;9.80;55.50;;;;;;5074518;28;20198;-66
2021/11/05 10:56:13;;;;;;;2.42;1.55;;;9.90;55.80;;;;;;5074309;28;20238;-66
2021/11/05 10:58:43;;;;;;;5.45;2.50;;;10.00;55.00;;;;;;5074311;28;20644;-66
2021/11/05 11:01:14;;;;;;;3.10;2.03;;;10.10;54.60;;;;;;5074502;28;20293;-67
2021/11/05 11:03:46;;;;;;;6.43;2.47;;;10.10;54.50;;;;;;5074739;28;20532;-67
2021/11/05 11:06:15;;;;;;;3.08;1.98;;;10.20;54.70;;;;;;5074748;28;20218;-66
2021/11/05 11:08:47;;;;;;;3.60;2.33;;;10.20;54.90;;;;;;5074511;28;20296;-66
2021/11/05 11:11:24;;;;;;;3.67;3.10;;;10.30;54.80;;;;;;5072094;28;20262;-66
2021/11/05 11:13:54;;;;;;;3.50;2.22;;;10.30;54.60;;;;;;5073491;28;20666;-66
2021/11/05 11:16:24;;;;;;;4.38;2.08;;;10.40;54.90;;;;;;5091398;28;20217;-67
2021/11/05 11:18:54;;;;;;;4.10;2.70;;;10.50;54.10;;;;;;5094278;28;20648;-67
2021/11/05 11:21:23;;;;;;;3.05;1.77;;;10.50;53.80;;;;;;5094383;28;20280;-67
2021/11/05 11:23:53;;;;;;;2.70;2.00;;;10.50;54.20;;;;;;5093814;28;20598;-67
2021/11/05 11:26:26;;;;;;;3.25;1.70;;;10.50;54.70;;;;;;5093583;28;20232;-66
2021/11/05 11:29:03;;;;;;;2.83;1.73;;;10.60;54.10;;;;;;5092640;28;20706;-67
2021/11/05 11:31:31;;;;;;;2.55;1.50;;;10.70;54.10;;;;;;5093706;28;20563;-66
2021/11/05 11:34:03;;;;;;;3.03;1.80;;;10.80;54.30;;;;;;5094046;28;20284;-66
2021/11/05 11:36:38;;;;;;;3.35;2.22;;;10.90;54.60;;;;;;5093933;28;20225;-67
2021/11/05 11:39:09;;;;;;;5.35;3.03;;;11.00;54.70;;;;;;5094127;28;20993;-66
2021/11/05 11:41:37;;;;;;;3.80;2.33;;;11.10;55.20;;;;;;5094165;28;20225;-66
2021/11/05 11:44:05;;;;;;;3.70;1.88;;;11.20;53.60;;;;;;5093779;28;20198;-66
2021/11/05 11:46:54;;;;;;;2.50;1.70;;;11.20;52.80;;;;;;5093610;28;20280;-67
2021/11/05 11:49:47;;;;;;;2.55;1.75;;;11.30;53.10;;;;;;5093726;28;20253;-67
2021/11/05 11:52:32;;;;;;;4.28;2.47;;;11.40;53.10;;;;;;5092370;28;20250;-66
2021/11/05 11:55:20;;;;;;;4.15;2.10;;;11.50;52.40;;;;;;5093602;28;20236;-66
2021/11/05 11:58:01;;;;;;;3.40;2.50;;;11.50;52.70;;;;;;5093954;28;20178;-67
2021/11/05 12:00:28;;;;;;;3.33;1.83;;;11.70;53.00;;;;;;5093221;28;20280;-66
2021/11/05 12:03:03;;;;;;;3.58;2.30;;;12.10;53.20;;;;;;5093480;28;20232;-67
2021/11/05 12:05:40;;;;;;;3.80;2.33;;;12.30;50.40;;;;;;5093528;28;20189;-67
2021/11/05 12:08:40;;;;;;;3.40;2.65;;;12.20;50.00;;;;;;5087437;28;20225;-67
2021/11/05 12:11:32;;;;;;;3.50;2.28;;;12.10;50.40;;;;;;5073289;28;20393;-67
2021/11/05 12:14:09;;;;;;;3.20;2.42;;;12.10;50.40;;;;;;5072688;28;20289;-67
2021/11/05 12:16:37;;;;;;;6.32;3.00;;;12.00;50.50;;;;;;5073019;28;20243;-67
2021/11/05 12:19:18;;;;;;;4.03;2.45;;;11.90;50.90;;;;;;5071825;28;20177;-66
2021/11/05 12:21:48;;;;;;;6.15;2.60;;;11.80;50.30;;;;;;5073007;28;20651;-68
2021/11/05 12:24:29;;;;;;;5.45;2.60;;;11.60;50.80;;;;;;5072718;28;20189;-68
2021/11/05 12:27:13;;;;;;;4.25;2.50;;;11.50;51.10;;;;;;5072735;28;20190;-68
2021/11/05 12:30:14;;;;;;;4.05;2.35;;;11.30;51.50;;;;;;5071833;28;20556;-66
2021/11/05 12:32:42;;;;;;;2.22;1.73;;;11.20;52.20;;;;;;5072012;28;20521;-65
2021/11/05 12:35:31;;;;;;;1.83;1.00;;;11.20;52.80;;;;;;5072540;28;20193;-66
2021/11/05 12:38:11;;;;;;;4.40;1.30;;;11.10;53.40;;;;;;5069062;28;20186;-67
2021/11/05 12:40:55;;;;;;;1.90;0.98;;;11.10;53.70;;;;;;5069936;28;20608;-68
2021/11/05 12:43:40;;;;;;;2.10;1.30;;;11.20;53.90;;;;;;5071587;28;20186;-68
2021/11/05 12:46:10;;;;;;;1.60;0.98;;;11.30;54.00;;;;;;5071649;28;20190;-67
2021/11/05 12:49:08;;;;;;;1.95;1.10;;;11.50;54.10;;;;;;5070423;28;20272;-68
2021/11/05 12:51:42;;;;;;;1.70;1.02;;;11.70;54.70;;;;;;5071315;28;20190;-67
2021/11/05 12:54:17;;;;;;;2.75;1.40;;;12.10;54.70;;;;;;5071806;28;20185;-67
2021/11/05 12:56:50;;;;;;;2.20;1.40;;;12.40;54.30;;;;;;5071029;28;20190;-67
2021/11/05 12:59:21;;;;;;;2.67;1.25;;;12.60;52.40;;;;;;5070270;28;20194;-69
2021/11/05 13:01:53;;;;;;;1.90;1.20;;;12.80;51.90;;;;;;5070254;28;20599;-67
2021/11/05 13:04:20;;;;;;;2.17;1.17;;;12.80;51.40;;;;;;5070908;28;20186;-67
2021/11/05 13:06:53;;;;;;;1.70;0.93;;;12.80;51.60;;;;;;5071857;28;20217;-68
2021/11/05 13:09:24;;;;;;;2.00;0.93;;;12.80;51.20;;;;;;5071764;28;20515;-67
2021/11/05 13:11:56;;;;;;;2.53;1.30;;;12.80;51.30;;;;;;5067908;28;20808;-67
2021/11/05 13:14:42;;;;;;;1.80;1.10;;;12.80;50.80;;;;;;5070802;28;20502;-66
2021/11/05 13:17:18;;;;;;;3.43;1.40;;;12.70;50.30;;;;;;5068907;28;20476;-68
2021/11/05 13:19:47;;;;;;;1.90;1.10;;;12.60;50.30;;;;;;5070687;28;21017;-67
2021/11/05 13:22:14;;;;;;;1.90;1.17;;;12.50;50.50;;;;;;5070644;28;20293;-67
2021/11/05 13:24:41;;;;;;;2.13;1.02;;;12.40;50.60;;;;;;5070527;28;20640;-67
2021/11/05 13:27:09;;;;;;;1.70;1.00;;;12.40;51.00;;;;;;5071203;28;20277;-66
2021/11/05 13:29:36;;;;;;;2.50;0.98;;;12.30;51.30;;;;;;5068132;28;20320;-66
2021/11/05 13:32:17;;;;;;;1.80;1.10;;;12.20;51.30;;;;;;5070859;28;20230;-66